< < Back
Terminal Aerodrome Forecast


Current Version              Previous Versions:   1  2  3  4  5  6  7  8  9  

Terminal Aerodrome Forecast

331
FTUS42 KCHS 030535
TAFCHS
TAF
KCHS 030535Z 0306/0406 VRB04KT P6SM SCT025 BKN250
     FM031900 14007KT P6SM BKN050 BKN250
     FM040000 20004KT P6SM FEW050 BKN250=

Latest METAR

890
SAUS80 KWBC 041600
MTRCHS
METAR KCHS 041556Z VRB04KT 10SM FEW030 32/23 A2998 RMK AO2 SLP150
T03220228


USA.gov is the U.S. government's official web portal to all federal, state and local government web resources and services.